createdAt,value
2022-12-11T00:01:59.882Z,100742.34
2022-12-11T00:04:30.846Z,100743.16
2022-12-11T00:07:01.107Z,100747.38
2022-12-11T00:09:31.907Z,100755.75
2022-12-11T00:12:03.431Z,100746.84
2022-12-11T00:14:34.027Z,100754.44
2022-12-11T00:17:05.545Z,100752.75
2022-12-11T00:19:36.139Z,100755.75
2022-12-11T00:22:09.547Z,100757.28
2022-12-11T00:24:40.052Z,100751.75
2022-12-11T00:27:10.586Z,100746.53
2022-12-11T00:29:41.219Z,100756.44
2022-12-11T00:32:11.546Z,100754.44
2022-12-11T00:34:42.277Z,100742.66
2022-12-11T00:37:12.826Z,100758.47
2022-12-11T00:39:43.611Z,100759.75
2022-12-11T00:42:14.713Z,100761.75
2022-12-11T00:44:45.050Z,100767.44
2022-12-11T00:47:16.404Z,100764.69
2022-12-11T00:49:49.999Z,100769.56
2022-12-11T00:52:20.770Z,100765.00
2022-12-11T00:54:52.160Z,100768.03
2022-12-11T00:57:22.768Z,100764.53
2022-12-11T00:59:52.952Z,100756.56
2022-12-11T01:02:24.085Z,100763.97
2022-12-11T01:04:54.847Z,100761.59
2022-12-11T01:07:26.265Z,100764.94
2022-12-11T01:10:14.953Z,100761.25
2022-12-11T01:12:45.212Z,100762.94
2022-12-11T01:15:15.843Z,100763.94
2022-12-11T01:17:46.339Z,100758.88
2022-12-11T01:20:18.249Z,100762.22
2022-12-11T01:22:48.744Z,100765.88
2022-12-11T01:25:19.677Z,100764.88
2022-12-11T01:27:52.838Z,100759.13
2022-12-11T01:30:26.018Z,100766.53
2022-12-11T01:32:57.802Z,100765.00
2022-12-11T01:35:29.085Z,100751.72
2022-12-11T01:38:00.267Z,100762.97
2022-12-11T01:40:30.779Z,100759.75
2022-12-11T01:43:01.776Z,100757.72
2022-12-11T01:45:33.753Z,100758.00
2022-12-11T01:48:11.853Z,100763.22
2022-12-11T01:50:58.361Z,100757.97
2022-12-11T01:53:38.727Z,100759.31
2022-12-11T01:56:10.319Z,100759.97
2022-12-11T01:58:49.108Z,100759.72
2022-12-11T02:01:48.050Z,100749.13
2022-12-11T02:04:20.969Z,100748.41
2022-12-11T02:06:53.579Z,100759.19
2022-12-11T02:09:28.960Z,100750.91
2022-12-11T02:12:25.441Z,100748.03
2022-12-11T02:14:58.454Z,100742.75
2022-12-11T02:18:06.274Z,100741.66
2022-12-11T02:20:39.854Z,100743.53
2022-12-11T02:23:54.330Z,100740.56
2022-12-11T02:26:48.738Z,100744.78
2022-12-11T02:29:24.748Z,100741.72
2022-12-11T02:32:04.845Z,100737.34
2022-12-11T02:35:04.451Z,100733.56
2022-12-11T02:37:38.447Z,100732.59
2022-12-11T02:40:11.912Z,100731.75
2022-12-11T02:42:44.484Z,100726.31
2022-12-11T02:45:16.432Z,100725.50
2022-12-11T02:47:49.419Z,100723.41
2022-12-11T02:50:21.853Z,100713.94
2022-12-11T02:52:56.708Z,100716.91
2022-12-11T02:55:28.739Z,100713.56
2022-12-11T02:58:17.925Z,100702.03
2022-12-11T03:00:48.829Z,100707.63
2022-12-11T03:03:19.264Z,100700.38
2022-12-11T03:05:49.836Z,100693.97
2022-12-11T03:08:21.069Z,100688.78
2022-12-11T03:10:53.103Z,100693.78
2022-12-11T03:13:24.468Z,100689.22
2022-12-11T03:16:24.198Z,100684.84
2022-12-11T03:19:49.977Z,100673.88
2022-12-11T03:22:40.949Z,100670.63
2022-12-11T03:25:25.140Z,100666.91
2022-12-11T03:28:11.858Z,100662.00
2022-12-11T03:30:43.201Z,100657.13
2022-12-11T03:33:20.004Z,100645.72
2022-12-11T03:35:55.701Z,100646.34
2022-12-11T03:38:33.075Z,100641.88
2022-12-11T03:41:05.324Z,100638.81
2022-12-11T03:43:36.474Z,100640.84
2022-12-11T03:46:07.927Z,100625.97
2022-12-11T03:48:42.683Z,100631.00
2022-12-11T03:51:13.015Z,100619.81
2022-12-11T03:53:43.226Z,100616.75
2022-12-11T03:56:15.045Z,100607.25
2022-12-11T03:58:45.563Z,100610.63
2022-12-11T04:01:16.446Z,100611.53
2022-12-11T04:03:47.006Z,100611.53
2022-12-11T04:06:17.742Z,100610.50
2022-12-11T04:08:49.265Z,100610.50
2022-12-11T04:11:35.576Z,100604.34
2022-12-11T04:14:27.088Z,100604.72
2022-12-11T04:16:58.341Z,100595.22
2022-12-11T04:19:47.569Z,100592.09
2022-12-11T04:22:38.322Z,100581.47
2022-12-11T04:25:10.312Z,100579.88
2022-12-11T04:27:50.217Z,100569.97
2022-12-11T04:30:26.071Z,100577.41
2022-12-11T04:33:00.330Z,100572.91
2022-12-11T04:35:33.497Z,100561.94
2022-12-11T04:38:04.411Z,100555.53
2022-12-11T04:40:34.807Z,100555.53
2022-12-11T04:43:05.908Z,100548.72
2022-12-11T04:45:36.263Z,100542.91
2022-12-11T04:48:06.994Z,100541.50
2022-12-11T04:50:37.921Z,100539.44
2022-12-11T04:53:08.497Z,100531.13
2022-12-11T04:55:40.888Z,100518.72
2022-12-11T04:58:11.110Z,100506.28
2022-12-11T05:00:43.137Z,100512.38
2022-12-11T05:03:14.118Z,100504.91
2022-12-11T05:05:53.048Z,100498.72
2022-12-11T05:08:23.983Z,100491.47
2022-12-11T05:11:00.944Z,100491.72
2022-12-11T05:13:32.852Z,100487.38
2022-12-11T05:16:06.735Z,100482.81
2022-12-11T05:18:37.361Z,100483.63
2022-12-11T05:21:12.808Z,100475.34
2022-12-11T05:23:43.977Z,100473.25
2022-12-11T05:26:19.559Z,100470.34
2022-12-11T05:28:55.127Z,100463.66
2022-12-11T05:31:28.032Z,100468.69
2022-12-11T05:33:58.661Z,100465.25
2022-12-11T05:36:31.440Z,100460.34
2022-12-11T05:39:02.611Z,100460.81
2022-12-11T05:41:35.430Z,100455.81
2022-12-11T05:44:05.741Z,100456.25
2022-12-11T05:46:36.715Z,100452.09
2022-12-11T05:49:07.315Z,100449.41
2022-12-11T05:51:37.680Z,100444.00
2022-12-11T05:54:08.598Z,100436.69
2022-12-11T05:56:39.362Z,100433.84
2022-12-11T05:59:10.809Z,100426.34
2022-12-11T06:01:43.789Z,100420.25
2022-12-11T06:04:14.924Z,100421.94
2022-12-11T06:06:45.868Z,100427.16
2022-12-11T06:09:17.478Z,100418.63
2022-12-11T06:11:48.069Z,100414.69
2022-12-11T06:14:18.307Z,100418.91
2022-12-11T06:16:49.151Z,100416.19
2022-12-11T06:19:19.842Z,100413.72
2022-12-11T06:21:51.611Z,100389.16
2022-12-11T06:24:22.038Z,100404.97
2022-12-11T06:26:52.563Z,100387.09
2022-12-11T06:29:23.416Z,100387.47
2022-12-11T06:31:53.804Z,100385.41
2022-12-11T06:34:24.418Z,100377.69
2022-12-11T06:36:55.229Z,100378.72
2022-12-11T06:39:25.743Z,100388.53
2022-12-11T06:41:56.758Z,100379.13
2022-12-11T06:44:27.347Z,100371.66
2022-12-11T06:46:57.702Z,100379.13
2022-12-11T06:49:28.506Z,100383.28
2022-12-11T06:51:59.596Z,100381.16
2022-12-11T06:54:29.975Z,100386.09
2022-12-11T06:57:00.613Z,100376.53
2022-12-11T06:59:31.241Z,100383.41
2022-12-11T07:02:01.618Z,100378.19
2022-12-11T07:04:32.370Z,100379.63
2022-12-11T07:07:02.701Z,100383.41
2022-12-11T07:09:33.024Z,100388.81
2022-12-11T07:12:05.078Z,100387.81
2022-12-11T07:14:35.946Z,100397.78
2022-12-11T07:17:07.131Z,100401.97
2022-12-11T07:19:39.195Z,100392.59
2022-12-11T07:22:09.780Z,100392.84
2022-12-11T07:24:41.126Z,100396.19
2022-12-11T07:27:13.799Z,100395.81
2022-12-11T07:29:44.153Z,100399.97
2022-12-11T07:32:15.555Z,100401.22
2022-12-11T07:34:51.560Z,100411.84
2022-12-11T07:37:22.961Z,100418.28
2022-12-11T07:39:54.290Z,100409.13
2022-12-11T07:42:25.409Z,100411.63
2022-12-11T07:44:55.844Z,100413.09
2022-12-11T07:47:26.363Z,100412.88
2022-12-11T07:49:57.432Z,100415.38
2022-12-11T07:52:28.285Z,100414.13
2022-12-11T07:54:58.574Z,100414.91
2022-12-11T07:57:40.023Z,100421.13
2022-12-11T08:00:12.672Z,100409.28
2022-12-11T08:02:45.421Z,100406.59
2022-12-11T08:05:16.720Z,100416.97
2022-12-11T08:07:47.968Z,100420.31
2022-12-11T08:10:19.208Z,100428.59
2022-12-11T08:12:49.736Z,100426.53
2022-12-11T08:15:20.284Z,100427.75
2022-12-11T08:17:50.832Z,100429.81
2022-12-11T08:20:21.409Z,100436.25
2022-12-11T08:22:56.031Z,100442.06
2022-12-11T08:25:30.245Z,100443.09
2022-12-11T08:28:00.364Z,100436.88
2022-12-11T08:30:31.336Z,100454.72
2022-12-11T08:33:01.689Z,100445.09
2022-12-11T08:35:32.304Z,100452.16
2022-12-11T08:38:03.719Z,100456.31
2022-12-11T08:40:34.696Z,100467.09
2022-12-11T08:43:05.249Z,100465.84
2022-12-11T08:45:37.191Z,100466.88
2022-12-11T08:48:09.024Z,100466.41
2022-12-11T08:50:40.476Z,100470.78
2022-12-11T08:53:11.044Z,100469.34
2022-12-11T08:55:41.825Z,100474.97
2022-12-11T08:58:12.519Z,100471.66
2022-12-11T09:00:43.703Z,100486.59
2022-12-11T09:03:14.411Z,100488.66
2022-12-11T09:05:45.168Z,100494.25
2022-12-11T09:08:15.783Z,100491.34
2022-12-11T09:10:48.936Z,100495.91
2022-12-11T09:13:19.321Z,100504.41
2022-12-11T09:15:49.829Z,100496.97
2022-12-11T09:18:22.483Z,100500.25
2022-12-11T09:21:07.872Z,100506.53
2022-12-11T09:23:39.530Z,100508.19
2022-12-11T09:26:13.062Z,100507.75
2022-12-11T09:28:47.043Z,100513.16
2022-12-11T09:31:20.468Z,100513.09
2022-12-11T09:33:51.665Z,100519.75
2022-12-11T09:36:25.116Z,100522.63
2022-12-11T09:38:55.662Z,100525.09
2022-12-11T09:42:07.755Z,100528.00
2022-12-11T09:44:48.993Z,100530.63
2022-12-11T09:47:51.180Z,100531.19
2022-12-11T09:50:27.215Z,100540.34
2022-12-11T09:53:34.081Z,100536.38
2022-12-11T09:56:11.574Z,100539.47
2022-12-11T09:58:54.025Z,100542.78
2022-12-11T10:01:41.690Z,100551.03
2022-12-11T10:04:12.357Z,100554.78
2022-12-11T10:07:21.131Z,100567.25
2022-12-11T10:09:57.312Z,100560.19
2022-12-11T10:12:51.085Z,100561.84
2022-12-11T10:15:31.777Z,100564.31
2022-12-11T10:18:05.117Z,100566.75
2022-12-11T10:20:40.154Z,100569.28
2022-12-11T10:23:20.047Z,100568.00
2022-12-11T10:25:58.624Z,100580.84
2022-12-11T10:28:30.036Z,100573.78
2022-12-11T10:31:07.599Z,100583.31
2022-12-11T10:33:57.746Z,100597.03
2022-12-11T10:36:37.221Z,100589.97
2022-12-11T10:39:20.324Z,100595.34
2022-12-11T10:41:55.459Z,100604.88
2022-12-11T10:44:29.231Z,100600.75
2022-12-11T10:47:13.853Z,100598.56
2022-12-11T10:49:56.984Z,100602.28
2022-12-11T10:52:30.602Z,100608.50
2022-12-11T10:55:19.431Z,100610.59
2022-12-11T10:58:00.475Z,100609.94
2022-12-11T11:00:38.060Z,100617.19
2022-12-11T11:03:27.570Z,100622.97
2022-12-11T11:06:28.089Z,100623.63
2022-12-11T11:08:59.957Z,100634.13
2022-12-11T11:11:39.350Z,100636.47
2022-12-11T11:14:21.517Z,100649.69
2022-12-11T11:16:57.214Z,100644.09
2022-12-11T11:19:38.262Z,100647.91
2022-12-11T11:22:14.352Z,100651.44
2022-12-11T11:24:55.986Z,100646.34
2022-12-11T11:27:37.377Z,100653.47
2022-12-11T11:30:20.065Z,100652.47
2022-12-11T11:32:56.307Z,100653.47
2022-12-11T11:35:28.985Z,100659.53
2022-12-11T11:38:33.195Z,100663.91
2022-12-11T11:41:13.169Z,100653.84
2022-12-11T11:43:54.892Z,100659.34
2022-12-11T11:46:44.149Z,100665.94
2022-12-11T11:50:04.318Z,100661.94
2022-12-11T11:52:52.441Z,100660.47
2022-12-11T11:55:54.450Z,100661.03
2022-12-11T11:58:29.539Z,100663.06
2022-12-11T12:01:00.207Z,100667.81
2022-12-11T12:03:31.309Z,100666.16
2022-12-11T12:06:26.331Z,100662.06
2022-12-11T12:09:29.445Z,100667.00
2022-12-11T12:12:19.392Z,100663.72
2022-12-11T12:14:59.334Z,100670.78
2022-12-11T12:17:37.124Z,100673.50
2022-12-11T12:20:15.830Z,100677.78
2022-12-11T12:23:04.346Z,100671.06
2022-12-11T12:25:45.773Z,100673.75
2022-12-11T12:28:24.144Z,100673.75
2022-12-11T12:31:03.225Z,100680.47
2022-12-11T12:33:39.755Z,100677.09
2022-12-11T12:36:18.466Z,100680.84
2022-12-11T12:38:51.819Z,100680.84
2022-12-11T12:41:37.418Z,100689.56
2022-12-11T12:44:20.668Z,100688.91
2022-12-11T12:46:57.956Z,100679.53
2022-12-11T12:49:46.710Z,100682.50
2022-12-11T12:52:34.016Z,100680.75
2022-12-11T12:55:30.426Z,100678.50
2022-12-11T12:58:06.702Z,100678.25
2022-12-11T13:00:44.458Z,100679.91
2022-12-11T13:03:31.350Z,100673.75
2022-12-11T13:06:06.855Z,100667.44
2022-12-11T13:08:55.735Z,100677.09
2022-12-11T13:11:36.250Z,100675.44
2022-12-11T13:14:07.231Z,100681.84
2022-12-11T13:16:42.579Z,100685.94
2022-12-11T13:19:42.549Z,100685.84
2022-12-11T13:22:16.318Z,100696.38
2022-12-11T13:25:03.265Z,100687.72
2022-12-11T13:27:39.109Z,100690.22
2022-12-11T13:30:27.916Z,100698.31
2022-12-11T13:33:19.783Z,100697.00
2022-12-11T13:36:16.692Z,100697.38
2022-12-11T13:38:57.312Z,100692.28
2022-12-11T13:41:28.964Z,100689.50
2022-12-11T13:43:59.846Z,100692.00
2022-12-11T13:46:33.526Z,100693.66
2022-12-11T13:49:07.831Z,100687.63
2022-12-11T13:51:55.135Z,100684.75
2022-12-11T13:54:26.177Z,100694.91
2022-12-11T13:57:04.459Z,100695.72
2022-12-11T13:59:40.017Z,100701.31
2022-12-11T14:02:28.270Z,100699.25
2022-12-11T14:05:02.559Z,100696.47
2022-12-11T14:07:35.114Z,100691.25
2022-12-11T14:10:10.682Z,100694.25
2022-12-11T14:12:49.042Z,100695.53
2022-12-11T14:15:20.060Z,100695.53
2022-12-11T14:17:52.119Z,100694.34
2022-12-11T14:20:25.736Z,100692.66
2022-12-11T14:23:28.933Z,100700.56
2022-12-11T14:26:14.754Z,100693.50
2022-12-11T14:28:45.745Z,100695.53
2022-12-11T14:31:20.118Z,100701.59
2022-12-11T14:34:03.106Z,100697.41
2022-12-11T14:36:34.732Z,100700.50
2022-12-11T14:39:28.663Z,100708.00
2022-12-11T14:42:16.735Z,100705.19
2022-12-11T14:44:56.574Z,100712.00
2022-12-11T14:47:32.411Z,100712.66
2022-12-11T14:50:36.888Z,100709.75
2022-12-11T14:53:15.489Z,100709.09
2022-12-11T14:55:47.007Z,100702.03
2022-12-11T14:58:23.164Z,100699.53
2022-12-11T15:01:06.135Z,100709.84
2022-12-11T15:03:39.029Z,100709.47
2022-12-11T15:06:45.706Z,100703.72
2022-12-11T15:09:30.438Z,100703.63
2022-12-11T15:12:11.705Z,100706.50
2022-12-11T15:14:52.538Z,100692.00
2022-12-11T15:17:24.924Z,100694.03
2022-12-11T15:19:59.063Z,100699.44
2022-12-11T15:22:34.256Z,100690.53
2022-12-11T15:25:04.781Z,100693.22
2022-12-11T15:27:37.779Z,100694.03
2022-12-11T15:30:29.412Z,100694.03
2022-12-11T15:33:12.226Z,100685.31
2022-12-11T15:36:02.432Z,100692.38
2022-12-11T15:38:38.627Z,100691.72
2022-12-11T15:41:15.148Z,100686.69
2022-12-11T15:43:46.307Z,100683.19
2022-12-11T15:46:17.119Z,100680.28
2022-12-11T15:48:48.764Z,100682.97
2022-12-11T15:51:19.651Z,100677.31
2022-12-11T15:53:50.093Z,100671.66
2022-12-11T15:56:20.705Z,100679.72
2022-12-11T15:58:51.238Z,100679.72
2022-12-11T16:01:22.149Z,100681.78
2022-12-11T16:03:52.443Z,100684.31
2022-12-11T16:06:22.842Z,100673.53
2022-12-11T16:08:53.066Z,100673.03
2022-12-11T16:11:23.390Z,100673.53
2022-12-11T16:13:54.189Z,100673.88
2022-12-11T16:16:24.670Z,100674.06
2022-12-11T16:18:55.787Z,100675.75
2022-12-11T16:21:26.268Z,100671.38
2022-12-11T16:23:57.120Z,100675.09
2022-12-11T16:26:28.104Z,100669.69
2022-12-11T16:28:58.596Z,100671.38
2022-12-11T16:31:29.825Z,100662.63
2022-12-11T16:34:00.648Z,100671.38
2022-12-11T16:36:30.916Z,100656.88
2022-12-11T16:39:01.712Z,100660.97
2022-12-11T16:41:32.230Z,100656.41
2022-12-11T16:44:04.517Z,100655.78
2022-12-11T16:46:35.755Z,100650.19
2022-12-11T16:49:06.668Z,100650.19
2022-12-11T16:51:37.318Z,100653.06
2022-12-11T16:54:07.925Z,100649.16
2022-12-11T16:56:39.462Z,100655.56
2022-12-11T16:59:13.829Z,100650.56
2022-12-11T17:01:45.904Z,100657.63
2022-12-11T17:04:19.035Z,100650.56
2022-12-11T17:06:58.513Z,100647.03
2022-12-11T17:09:31.750Z,100645.16
2022-12-11T17:12:02.015Z,100642.28
2022-12-11T17:14:32.615Z,100640.69
2022-12-11T17:17:04.671Z,100647.19
2022-12-11T17:19:37.454Z,100638.47
2022-12-11T17:22:08.689Z,100637.44
2022-12-11T17:24:39.327Z,100638.47
2022-12-11T17:27:09.905Z,100638.47
2022-12-11T17:29:40.502Z,100640.34
2022-12-11T17:32:11.473Z,100633.19
2022-12-11T17:34:42.283Z,100631.31
2022-12-11T17:37:13.254Z,100627.41
2022-12-11T17:39:43.778Z,100628.50
2022-12-11T17:42:15.359Z,100629.91
2022-12-11T17:44:46.510Z,100631.28
2022-12-11T17:47:17.052Z,100635.16
2022-12-11T17:49:47.301Z,100638.88
2022-12-11T17:52:17.836Z,100638.06
2022-12-11T17:54:48.472Z,100635.72
2022-12-11T17:57:19.261Z,100632.19
2022-12-11T17:59:59.172Z,100624.31
2022-12-11T18:02:29.997Z,100617.91
2022-12-11T18:05:00.576Z,100613.53
2022-12-11T18:07:30.821Z,100615.50
2022-12-11T18:10:01.398Z,100601.38
2022-12-11T18:12:32.011Z,100607.78
2022-12-11T18:15:03.549Z,100608.13
2022-12-11T18:17:34.584Z,100600.59
2022-12-11T18:20:09.475Z,100606.47
2022-12-11T18:22:40.086Z,100613.88
2022-12-11T18:25:13.476Z,100605.63
2022-12-11T18:27:44.418Z,100599.41
2022-12-11T18:30:15.487Z,100607.84
2022-12-11T18:32:46.513Z,100598.75
2022-12-11T18:35:17.204Z,100605.16
2022-12-11T18:37:48.189Z,100593.53
2022-12-11T18:40:18.967Z,100587.97
2022-12-11T18:42:50.520Z,100584.31
2022-12-11T18:45:20.995Z,100582.66
2022-12-11T18:47:56.580Z,100586.66
2022-12-11T18:50:28.915Z,100586.47
2022-12-11T18:53:01.279Z,100598.81
2022-12-11T18:55:31.833Z,100597.97
2022-12-11T18:58:03.035Z,100602.50
2022-12-11T19:00:33.508Z,100595.81
2022-12-11T19:03:04.066Z,100594.81
2022-12-11T19:05:34.885Z,100595.81
2022-12-11T19:08:05.638Z,100587.56
2022-12-11T19:10:43.762Z,100592.47
2022-12-11T19:13:15.631Z,100586.56
2022-12-11T19:15:48.233Z,100596.84
2022-12-11T19:18:19.180Z,100590.78
2022-12-11T19:20:52.376Z,100587.44
2022-12-11T19:23:32.691Z,100597.19
2022-12-11T19:26:03.425Z,100596.19
2022-12-11T19:28:35.386Z,100599.91
2022-12-11T19:31:05.812Z,100593.19
2022-12-11T19:33:45.604Z,100580.75
2022-12-11T19:36:22.421Z,100588.53
2022-12-11T19:38:57.894Z,100590.22
2022-12-11T19:41:32.621Z,100587.00
2022-12-11T19:44:03.304Z,100600.63
2022-12-11T19:46:34.176Z,100604.34
2022-12-11T19:49:05.367Z,100605.34
2022-12-11T19:51:39.443Z,100606.00
2022-12-11T19:54:13.195Z,100601.47
2022-12-11T19:56:43.796Z,100615.94
2022-12-11T19:59:17.675Z,100615.09
2022-12-11T20:01:49.213Z,100618.81
2022-12-11T20:04:20.921Z,100622.50
2022-12-11T20:06:51.684Z,100622.34
2022-12-11T20:09:23.136Z,100627.53
2022-12-11T20:11:53.593Z,100621.13
2022-12-11T20:14:26.349Z,100628.03
2022-12-11T20:17:14.357Z,100629.22
2022-12-11T20:19:45.397Z,100624.38
2022-12-11T20:22:18.848Z,100622.88
2022-12-11T20:24:50.065Z,100642.38
2022-12-11T20:27:20.575Z,100637.72
2022-12-11T20:29:50.854Z,100641.72
2022-12-11T20:32:21.547Z,100639.88
2022-12-11T20:34:51.891Z,100641.06
2022-12-11T20:37:22.702Z,100638.38
2022-12-11T20:39:53.458Z,100644.06
2022-12-11T20:42:24.688Z,100643.75
2022-12-11T20:44:56.497Z,100644.78
2022-12-11T20:47:27.256Z,100641.06
2022-12-11T20:49:57.567Z,100653.84
2022-12-11T20:52:29.040Z,100657.09
2022-12-11T20:55:01.589Z,100653.41
2022-12-11T20:57:32.027Z,100656.25
2022-12-11T21:00:03.679Z,100656.25
2022-12-11T21:02:35.003Z,100659.97
2022-12-11T21:05:05.709Z,100664.69
2022-12-11T21:07:36.205Z,100660.97
2022-12-11T21:10:07.807Z,100665.03
2022-12-11T21:12:39.166Z,100668.94
2022-12-11T21:15:12.725Z,100666.41
2022-12-11T21:17:43.372Z,100671.78
2022-12-11T21:20:14.041Z,100666.41
2022-12-11T21:22:44.800Z,100673.47
2022-12-11T21:25:15.184Z,100678.50
2022-12-11T21:27:47.861Z,100678.84
2022-12-11T21:30:18.264Z,100683.25
2022-12-11T21:32:48.920Z,100684.47
2022-12-11T21:35:22.703Z,100687.97
2022-12-11T21:37:53.651Z,100691.03
2022-12-11T21:40:24.412Z,100680.59
2022-12-11T21:42:55.169Z,100693.03
2022-12-11T21:45:59.306Z,100690.19
2022-12-11T21:48:17.069Z,100696.72
2022-12-11T21:50:47.616Z,100703.66
2022-12-11T21:53:19.089Z,100700.44
2022-12-11T21:55:49.926Z,100709.53
2022-12-11T21:58:22.340Z,100710.53
2022-12-11T22:00:53.263Z,100708.84
2022-12-11T22:03:23.638Z,100708.19
2022-12-11T22:05:54.200Z,100715.25
2022-12-11T22:08:25.179Z,100725.53
2022-12-11T22:10:56.607Z,100727.69
2022-12-11T22:13:26.907Z,100730.91
2022-12-11T22:15:58.576Z,100733.44
2022-12-11T22:18:29.557Z,100728.06
2022-12-11T22:21:03.201Z,100745.84
2022-12-11T22:23:33.477Z,100743.34
2022-12-11T22:26:03.882Z,100749.09
2022-12-11T22:28:37.037Z,100753.28
2022-12-11T22:31:12.523Z,100747.91
2022-12-11T22:33:43.080Z,100756.13
2022-12-11T22:36:13.400Z,100758.00
2022-12-11T22:38:44.402Z,100766.06
2022-12-11T22:41:22.201Z,100769.44
2022-12-11T22:43:53.186Z,100771.44
2022-12-11T22:46:25.763Z,100774.84
2022-12-11T22:48:56.869Z,100777.84
2022-12-11T22:51:27.232Z,100785.91
2022-12-11T22:53:57.771Z,100786.25
2022-12-11T22:56:28.758Z,100790.44
2022-12-11T22:59:00.195Z,100787.94
2022-12-11T23:01:30.947Z,100796.31
2022-12-11T23:04:01.281Z,100793.31
2022-12-11T23:06:32.190Z,100786.41
2022-12-11T23:09:05.949Z,100792.00
2022-12-11T23:11:38.747Z,100790.47
2022-12-11T23:14:12.544Z,100797.03
2022-12-11T23:16:43.612Z,100798.69
2022-12-11T23:19:14.934Z,100800.72
2022-12-11T23:21:45.592Z,100807.44
2022-12-11T23:24:16.308Z,100804.91
2022-12-11T23:26:46.934Z,100811.47
2022-12-11T23:29:17.247Z,100817.88
2022-12-11T23:31:47.756Z,100814.31
2022-12-11T23:34:18.417Z,100819.22
2022-12-11T23:36:49.070Z,100819.91
2022-12-11T23:39:19.627Z,100822.59
2022-12-11T23:41:50.791Z,100821.25
2022-12-11T23:44:21.563Z,100825.44
2022-12-11T23:46:52.469Z,100827.63
2022-12-11T23:49:32.945Z,100832.66
2022-12-11T23:52:05.181Z,100833.34
2022-12-11T23:54:35.799Z,100827.28
2022-12-11T23:57:06.227Z,100839.72
2022-12-11T23:59:37.976Z,100837.72
